Aviation-Friends-Hamburg. Das neue Portal der Airbus-Freunde für Hamburg und Norddeutschland
Runwaykonfiguration - Druckversion

+- Aviation-Friends-Hamburg. Das neue Portal der Airbus-Freunde für Hamburg und Norddeutschland (http://www.aviation-friends-hamburg-forum.de)
+-- Forum: Informationen (http://www.aviation-friends-hamburg-forum.de/forumdisplay.php?fid=3)
+--- Forum: Aktuelle Movements XFW/HAM (http://www.aviation-friends-hamburg-forum.de/forumdisplay.php?fid=27)
+--- Thema: Runwaykonfiguration (/showthread.php?tid=10833)



Runwaykonfiguration - Pilot - 07.06.2016

Aktuelle Runwaykonfiguration werden hier gepostet.


RE: Runwaykonfiguration - Airbus-Aktuell - 24.01.2018

EDDH/HAM am 24.01.2018 - 0845

Landing: 23

Takeoff :33


Gruß

Helmut

Data at: 0743 UTC 24 Jan 2018
METAR for:
EDDH (Hamburg Arpt, --, DL)
Text:
EDDH 240720Z 22011KT 9000 FEW007 BKN009 BKN032 09/08 Q1013 BECMG BKN012
Temperature:
9.0°C ( 48°F)
Dewpoint:
8.0°C ( 46°F) [RH = 93%]
Pressure (altimeter):
29.91 inches Hg (1013.0 mb)
Winds:
from the SW (220 degrees) at 13 MPH (11 knots; 5.7 m/s)
Visibility:
6 sm ( 9 km)
Ceiling:
900 feet AGL
Clouds:
few clouds at 700 feet AGL, broken clouds at 900 feet AGL, broken clouds at 3200 feet AGL